createdAt,value
2023-04-01T00:04:48.136Z,6.63
2023-04-01T00:07:57.890Z,6.61
2023-04-01T00:11:03.471Z,6.57
2023-04-01T00:14:11.227Z,6.55
2023-04-01T00:17:16.831Z,6.54
2023-04-01T00:20:23.397Z,6.48
2023-04-01T00:23:31.990Z,6.44
2023-04-01T00:26:38.621Z,6.43
2023-04-01T00:29:46.685Z,6.41
2023-04-01T00:32:56.430Z,6.15
2023-04-01T00:36:11.723Z,6.40
2023-04-01T00:39:21.093Z,6.52
2023-04-01T00:42:28.092Z,6.51
2023-04-01T00:45:41.150Z,6.48
2023-04-01T00:48:53.433Z,6.52
2023-04-01T00:52:08.463Z,6.59
2023-04-01T00:55:22.805Z,6.53
2023-04-01T00:58:37.500Z,6.51
2023-04-01T01:01:43.462Z,6.49
2023-04-01T01:04:51.032Z,6.33
2023-04-01T01:08:11.269Z,6.28
2023-04-01T01:11:42.778Z,6.25
2023-04-01T01:15:05.970Z,6.23
2023-04-01T01:18:24.751Z,6.27
2023-04-01T01:22:01.601Z,6.22
2023-04-01T01:25:38.323Z,6.31
2023-04-01T01:29:10.747Z,6.32
2023-04-01T01:32:47.273Z,6.29
2023-04-01T01:36:02.162Z,6.31
2023-04-01T01:39:13.660Z,6.30
2023-04-01T01:42:28.374Z,6.29
2023-04-01T01:45:41.311Z,6.31
2023-04-01T01:48:51.893Z,6.22
2023-04-01T01:52:01.164Z,6.21
2023-04-01T01:55:32.420Z,6.22
2023-04-01T01:58:47.366Z,6.16
2023-04-01T02:02:01.420Z,6.14
2023-04-01T02:05:12.390Z,6.16
2023-04-01T02:08:30.939Z,6.10
2023-04-01T02:11:45.867Z,6.14
2023-04-01T02:15:01.637Z,6.10
2023-04-01T02:18:09.846Z,6.05
2023-04-01T02:21:19.690Z,6.14
2023-04-01T02:24:34.521Z,6.10
2023-04-01T02:27:43.392Z,6.07
2023-04-01T02:30:51.168Z,6.07
2023-04-01T02:33:59.280Z,6.06
2023-04-01T02:37:05.802Z,6.03
2023-04-01T02:40:18.946Z,6.01
2023-04-01T02:43:24.591Z,6.12
2023-04-01T02:46:31.375Z,6.22
2023-04-01T02:49:37.032Z,6.28
2023-04-01T02:52:43.481Z,6.36
2023-04-01T02:55:53.644Z,6.28
2023-04-01T02:59:00.601Z,6.35
2023-04-01T03:02:06.406Z,6.44
2023-04-01T03:05:14.015Z,6.44
2023-04-01T03:08:20.299Z,6.40
2023-04-01T03:11:29.820Z,6.40
2023-04-01T03:14:35.727Z,6.35
2023-04-01T03:17:42.759Z,6.33
2023-04-01T03:20:49.687Z,6.20
2023-04-01T03:23:56.895Z,6.33
2023-04-01T03:27:05.551Z,6.39
2023-04-01T03:30:13.736Z,6.43
2023-04-01T03:33:28.007Z,6.48
2023-04-01T03:36:34.925Z,6.51
2023-04-01T03:39:42.543Z,6.58
2023-04-01T03:42:54.152Z,6.56
2023-04-01T03:46:00.760Z,6.54
2023-04-01T03:49:12.911Z,6.50
2023-04-01T03:52:18.750Z,6.42
2023-04-01T03:55:25.400Z,6.40
2023-04-01T03:58:34.423Z,6.36
2023-04-01T04:01:42.753Z,6.32
2023-04-01T04:04:49.040Z,6.33
2023-04-01T04:07:56.960Z,6.31
2023-04-01T04:11:03.454Z,6.40
2023-04-01T04:14:12.959Z,6.35
2023-04-01T04:17:18.636Z,6.40
2023-04-01T04:20:25.210Z,6.37
2023-04-01T04:23:31.847Z,6.41
2023-04-01T04:26:38.688Z,6.36
2023-04-01T04:29:47.169Z,6.23
2023-04-01T04:32:53.634Z,6.24
2023-04-01T04:36:02.340Z,6.23
2023-04-01T04:39:09.010Z,6.23
2023-04-01T04:42:17.646Z,6.31
2023-04-01T04:45:28.569Z,6.34
2023-04-01T04:48:35.822Z,6.43
2023-04-01T04:51:42.736Z,6.43
2023-04-01T04:54:48.974Z,6.53
2023-04-01T04:57:55.913Z,6.54
2023-04-01T05:01:11.914Z,6.57
2023-04-01T05:04:19.801Z,6.52
2023-04-01T05:07:25.447Z,6.59
2023-04-01T05:10:32.789Z,6.63
2023-04-01T05:13:39.084Z,6.68
2023-04-01T05:16:48.472Z,6.73
2023-04-01T05:19:54.293Z,6.75
2023-04-01T05:23:01.613Z,6.93
2023-04-01T05:26:10.172Z,7.05
2023-04-01T05:29:17.527Z,7.05
2023-04-01T05:32:29.431Z,7.10
2023-04-01T05:35:37.104Z,7.05
2023-04-01T05:38:44.466Z,7.06
2023-04-01T05:41:52.298Z,7.09
2023-04-01T05:45:00.978Z,6.99
2023-04-01T05:48:29.181Z,7.03
2023-04-01T05:51:34.781Z,7.05
2023-04-01T05:54:41.356Z,7.05
2023-04-01T05:57:50.806Z,7.09
2023-04-01T06:01:10.302Z,7.10
2023-04-01T06:04:24.924Z,7.05
2023-04-01T06:07:33.571Z,7.11
2023-04-01T06:11:16.933Z,7.16
2023-04-01T06:14:42.844Z,7.19
2023-04-01T06:18:18.572Z,7.17
2023-04-01T06:22:17.046Z,7.20
2023-04-01T06:25:52.638Z,7.37
2023-04-01T06:29:48.444Z,7.42
2023-04-01T06:33:18.547Z,7.52
2023-04-01T06:37:05.253Z,7.66
2023-04-01T06:41:08.091Z,7.80
2023-04-01T06:44:32.544Z,7.81
2023-04-01T06:48:29.876Z,7.88
2023-04-01T06:52:35.837Z,8.12
2023-04-01T06:56:34.218Z,8.30
2023-04-01T06:59:49.955Z,8.47
2023-04-01T07:03:11.815Z,8.51
2023-04-01T07:06:32.025Z,8.41
2023-04-01T07:09:53.715Z,8.33
2023-04-01T07:13:25.070Z,8.24
2023-04-01T07:16:42.290Z,8.26
2023-04-01T07:20:00.569Z,8.14
2023-04-01T07:23:15.277Z,8.05
2023-04-01T07:26:36.428Z,8.12
2023-04-01T07:29:42.101Z,8.11
2023-04-01T07:33:01.105Z,8.28
2023-04-01T07:36:22.338Z,8.18
2023-04-01T07:39:46.477Z,8.18
2023-04-01T07:43:45.450Z,7.90
2023-04-01T07:47:25.842Z,7.79
2023-04-01T07:50:36.185Z,7.71
2023-04-01T07:53:55.267Z,7.68
2023-04-01T07:57:16.520Z,7.67
2023-04-01T08:00:47.747Z,7.82
2023-04-01T08:04:53.154Z,8.05
2023-04-01T08:08:19.606Z,8.19
2023-04-01T08:12:37.208Z,8.27
2023-04-01T08:16:54.391Z,8.29
2023-04-01T08:20:28.045Z,8.31
2023-04-01T08:23:46.118Z,8.47
2023-04-01T08:27:03.341Z,8.59
2023-04-01T08:30:23.305Z,8.59
2023-04-01T08:33:35.324Z,8.50
2023-04-01T08:36:55.636Z,8.44
2023-04-01T08:40:31.914Z,8.49
2023-04-01T08:44:45.287Z,8.50
2023-04-01T08:48:40.723Z,8.44
2023-04-01T08:52:22.320Z,8.55
2023-04-01T08:55:44.678Z,8.42
2023-04-01T08:59:31.648Z,8.49
2023-04-01T09:03:15.613Z,8.54
2023-04-01T09:06:56.676Z,8.58
2023-04-01T09:10:44.158Z,8.55
2023-04-01T09:14:46.510Z,8.55
2023-04-01T09:18:50.339Z,8.58
2023-04-01T09:22:29.867Z,8.56
2023-04-01T09:25:58.000Z,8.66
2023-04-01T09:29:27.924Z,8.79
2023-04-01T09:33:27.386Z,8.58
2023-04-01T09:36:50.281Z,8.11
2023-04-01T09:40:22.904Z,8.37
2023-04-01T09:44:05.957Z,8.26
2023-04-01T09:47:53.429Z,8.04
2023-04-01T09:51:20.315Z,7.96
2023-04-01T09:54:56.201Z,8.14
2023-04-01T09:59:06.293Z,8.08
2023-04-01T10:04:14.185Z,7.97
2023-04-01T10:08:12.010Z,7.91
2023-04-01T10:12:21.039Z,7.88
2023-04-01T10:16:20.574Z,7.82
2023-04-01T10:20:07.187Z,8.14
2023-04-01T10:23:42.249Z,8.22
2023-04-01T10:27:51.014Z,7.95
2023-04-01T10:32:22.479Z,8.03
2023-04-01T10:36:18.877Z,8.02
2023-04-01T10:40:23.963Z,7.79
2023-04-01T10:45:17.251Z,7.92
2023-04-01T10:49:30.943Z,8.08
2023-04-01T10:53:33.771Z,8.26
2023-04-01T10:57:06.864Z,8.32
2023-04-01T11:01:18.520Z,8.43
2023-04-01T11:06:15.870Z,8.66
2023-04-01T11:10:34.965Z,8.55
2023-04-01T11:14:25.849Z,8.42
2023-04-01T11:18:39.329Z,8.66
2023-04-01T11:22:14.970Z,8.51
2023-04-01T11:26:19.535Z,8.70
2023-04-01T11:30:54.949Z,8.73
2023-04-01T11:34:25.362Z,8.92
2023-04-01T11:37:55.876Z,9.07
2023-04-01T11:41:44.982Z,9.28
2023-04-01T11:45:29.995Z,9.40
2023-04-01T11:49:02.910Z,9.53
2023-04-01T11:52:32.843Z,9.42
2023-04-01T11:56:03.878Z,9.66
2023-04-01T12:00:04.059Z,9.51
2023-04-01T12:04:04.770Z,9.15
2023-04-01T12:07:28.174Z,9.26
2023-04-01T12:10:53.988Z,9.19
2023-04-01T12:14:15.686Z,9.22
2023-04-01T12:17:41.569Z,9.18
2023-04-01T12:20:59.032Z,9.14
2023-04-01T12:24:57.190Z,9.12
2023-04-01T12:28:24.958Z,9.09
2023-04-01T12:31:50.658Z,9.15
2023-04-01T12:35:23.544Z,9.16
2023-04-01T12:38:51.945Z,9.11
2023-04-01T12:42:17.662Z,9.17
2023-04-01T12:45:35.591Z,9.25
2023-04-01T12:49:35.517Z,9.41
2023-04-01T12:53:07.089Z,9.52
2023-04-01T12:56:41.058Z,9.73
2023-04-01T13:00:20.492Z,9.79
2023-04-01T13:04:10.185Z,9.61
2023-04-01T13:08:00.157Z,9.48
2023-04-01T13:11:22.697Z,9.67
2023-04-01T13:15:07.534Z,9.74
2023-04-01T13:18:36.804Z,9.69
2023-04-01T13:22:01.521Z,9.65
2023-04-01T13:25:23.410Z,9.79
2023-04-01T13:28:41.412Z,9.78
2023-04-01T13:32:10.432Z,9.79
2023-04-01T13:35:41.313Z,9.81
2023-04-01T13:39:20.898Z,9.79
2023-04-01T13:42:39.316Z,10.03
2023-04-01T13:46:20.565Z,10.11
2023-04-01T13:50:11.980Z,9.86
2023-04-01T13:53:59.941Z,9.35
2023-04-01T13:57:32.058Z,8.76
2023-04-01T14:01:07.557Z,8.36
2023-04-01T14:04:48.495Z,8.21
2023-04-01T14:08:12.609Z,8.09
2023-04-01T14:11:39.475Z,7.96
2023-04-01T14:15:22.965Z,7.92
2023-04-01T14:19:16.251Z,8.00
2023-04-01T14:22:42.915Z,8.07
2023-04-01T14:26:35.688Z,8.21
2023-04-01T14:30:04.639Z,8.33
2023-04-01T14:33:35.726Z,8.40
2023-04-01T14:37:16.399Z,8.48
2023-04-01T14:40:38.709Z,8.64
2023-04-01T14:44:34.105Z,8.45
2023-04-01T14:47:56.281Z,8.26
2023-04-01T14:51:14.846Z,8.12
2023-04-01T14:54:36.377Z,8.15
2023-04-01T14:57:42.264Z,8.19
2023-04-01T15:01:15.211Z,8.15
2023-04-01T15:04:58.795Z,8.22
2023-04-01T15:08:21.277Z,8.23
2023-04-01T15:11:50.770Z,8.14
2023-04-01T15:15:29.173Z,8.09
2023-04-01T15:18:59.817Z,7.93
2023-04-01T15:22:48.467Z,7.79
2023-04-01T15:26:24.627Z,7.71
2023-04-01T15:30:06.159Z,7.47
2023-04-01T15:33:57.039Z,7.49
2023-04-01T15:37:21.103Z,7.34
2023-04-01T15:40:35.381Z,7.33
2023-04-01T15:43:50.141Z,7.19
2023-04-01T15:46:56.809Z,7.13
2023-04-01T15:50:48.673Z,7.12
2023-04-01T15:54:46.003Z,7.17
2023-04-01T15:58:35.927Z,7.22
2023-04-01T16:02:00.429Z,7.19
2023-04-01T16:05:41.746Z,7.10
2023-04-01T16:09:12.591Z,6.89
2023-04-01T16:12:29.808Z,6.86
2023-04-01T16:15:55.066Z,6.79
2023-04-01T16:19:30.686Z,6.67
2023-04-01T16:22:49.732Z,6.64
2023-04-01T16:26:10.841Z,6.38
2023-04-01T16:29:37.071Z,6.49
2023-04-01T16:32:58.826Z,6.55
2023-04-01T16:36:18.078Z,6.69
2023-04-01T16:39:42.398Z,6.73
2023-04-01T16:42:57.054Z,6.77
2023-04-01T16:46:36.899Z,6.75
2023-04-01T16:49:56.152Z,6.77
2023-04-01T16:53:13.882Z,6.80
2023-04-01T16:56:28.563Z,6.88
2023-04-01T16:59:42.082Z,7.03
2023-04-01T17:03:03.011Z,7.00
2023-04-01T17:06:31.814Z,7.01
2023-04-01T17:10:09.785Z,7.10
2023-04-01T17:13:40.131Z,7.13
2023-04-01T17:17:26.066Z,7.17
2023-04-01T17:20:54.370Z,7.15
2023-04-01T17:24:33.535Z,7.15
2023-04-01T17:27:55.627Z,7.11
2023-04-01T17:31:23.039Z,7.13
2023-04-01T17:35:01.089Z,7.10
2023-04-01T17:38:28.245Z,7.14
2023-04-01T17:41:51.570Z,7.25
2023-04-01T17:45:14.967Z,7.14
2023-04-01T17:48:45.182Z,7.06
2023-04-01T17:52:11.646Z,7.14
2023-04-01T17:55:55.469Z,7.09
2023-04-01T17:59:20.542Z,7.05
2023-04-01T18:02:46.145Z,7.05
2023-04-01T18:06:18.111Z,7.08
2023-04-01T18:09:47.322Z,7.14
2023-04-01T18:13:35.445Z,7.19
2023-04-01T18:17:17.243Z,7.24
2023-04-01T18:20:44.064Z,7.30
2023-04-01T18:24:02.995Z,7.41
2023-04-01T18:27:20.638Z,7.47
2023-04-01T18:30:37.154Z,7.48
2023-04-01T18:33:59.436Z,7.48
2023-04-01T18:37:23.659Z,7.51
2023-04-01T18:40:39.746Z,7.55
2023-04-01T18:44:08.003Z,7.56
2023-04-01T18:47:34.521Z,7.48
2023-04-01T18:50:52.008Z,7.55
2023-04-01T18:54:06.900Z,7.52
2023-04-01T18:57:20.365Z,7.47
2023-04-01T19:00:36.967Z,7.50
2023-04-01T19:03:59.896Z,7.26
2023-04-01T19:07:44.929Z,7.34
2023-04-01T19:11:11.991Z,7.34
2023-04-01T19:14:34.856Z,7.29
2023-04-01T19:18:02.756Z,7.37
2023-04-01T19:21:20.893Z,7.44
2023-04-01T19:24:56.815Z,7.42
2023-04-01T19:28:21.977Z,7.40
2023-04-01T19:31:57.024Z,7.52
2023-04-01T19:35:24.758Z,7.55
2023-04-01T19:38:42.511Z,7.55
2023-04-01T19:42:03.693Z,7.57
2023-04-01T19:45:34.628Z,7.49
2023-04-01T19:49:08.623Z,7.48
2023-04-01T19:52:27.165Z,7.42
2023-04-01T19:55:48.810Z,7.46
2023-04-01T19:59:08.726Z,7.29
2023-04-01T20:02:48.336Z,7.50
2023-04-01T20:06:15.763Z,7.44
2023-04-01T20:10:02.205Z,7.38
2023-04-01T20:13:25.201Z,7.39
2023-04-01T20:16:56.776Z,7.44
2023-04-01T20:20:19.609Z,7.48
2023-04-01T20:23:47.828Z,7.55
2023-04-01T20:27:11.375Z,7.59
2023-04-01T20:31:17.245Z,7.66
2023-04-01T20:35:12.764Z,7.68
2023-04-01T20:39:32.075Z,7.71
2023-04-01T20:43:04.118Z,7.63
2023-04-01T20:46:24.205Z,7.56
2023-04-01T20:50:00.561Z,7.59
2023-04-01T20:53:19.826Z,7.60
2023-04-01T20:56:52.605Z,7.54
2023-04-01T21:00:34.028Z,7.51
2023-04-01T21:03:59.073Z,7.54
2023-04-01T21:07:31.133Z,7.51
2023-04-01T21:10:54.611Z,7.45
2023-04-01T21:14:38.155Z,7.38
2023-04-01T21:18:08.750Z,7.27
2023-04-01T21:21:53.350Z,7.21
2023-04-01T21:25:31.569Z,7.18
2023-04-01T21:29:14.178Z,7.04
2023-04-01T21:32:41.916Z,7.14
2023-04-01T21:36:05.175Z,7.16
2023-04-01T21:39:46.046Z,7.18
2023-04-01T21:43:10.369Z,7.21
2023-04-01T21:47:03.131Z,7.21
2023-04-01T21:50:59.832Z,7.25
2023-04-01T21:54:41.710Z,7.29
2023-04-01T21:59:00.531Z,7.30
2023-04-01T22:02:56.397Z,7.33
2023-04-01T22:06:26.781Z,7.37
2023-04-01T22:09:44.367Z,7.40
2023-04-01T22:13:02.135Z,7.37
2023-04-01T22:16:27.072Z,7.32
2023-04-01T22:19:52.222Z,7.36
2023-04-01T22:23:30.514Z,7.34
2023-04-01T22:26:48.175Z,7.35
2023-04-01T22:30:14.155Z,7.34
2023-04-01T22:33:36.456Z,7.37
2023-04-01T22:37:03.729Z,7.37
2023-04-01T22:40:32.240Z,7.37
2023-04-01T22:43:45.719Z,7.46
2023-04-01T22:47:09.770Z,7.42
2023-04-01T22:50:26.018Z,7.39
2023-04-01T22:53:58.500Z,7.42
2023-04-01T22:57:12.848Z,7.43
2023-04-01T23:00:28.754Z,7.38
2023-04-01T23:03:41.683Z,7.39
2023-04-01T23:06:56.765Z,7.36
2023-04-01T23:10:18.571Z,7.28
2023-04-01T23:13:35.516Z,7.27
2023-04-01T23:16:54.724Z,7.27
2023-04-01T23:20:19.500Z,7.31
2023-04-01T23:23:43.773Z,7.30
2023-04-01T23:27:04.424Z,7.34
2023-04-01T23:30:54.574Z,7.35
2023-04-01T23:34:04.445Z,7.28
2023-04-01T23:37:17.507Z,7.24
2023-04-01T23:40:23.390Z,7.30
2023-04-01T23:43:40.387Z,7.27
2023-04-01T23:46:51.959Z,7.29
2023-04-01T23:50:05.246Z,7.23
2023-04-01T23:53:29.675Z,7.21
2023-04-01T23:56:47.765Z,7.21
